Time;durP1;ratioP1;P1;durP2;ratioP2;P2;SDS_P1;SDS_P2;PMS_P1;PMS_P2;Temp;Humidity;BMP_temperature;BMP_pressure;BME280_temperature;BME280_humidity;BME280_pressure;Samples;Min_cycle;Max_cycle;Signal;HPM_P1;HPM_P2
2023/08/30 00:00:10;;;;;;;11.60;8.55;;;;;;;14.62;100.00;100628.09;4995075;28;20030;-69
2023/08/30 00:02:36;;;;;;;12.60;8.02;;;;;;;14.60;100.00;100620.47;4983441;28;20056;-69
2023/08/30 00:05:03;;;;;;;10.98;8.70;;;;;;;14.58;100.00;100628.47;4997137;28;20373;-69
2023/08/30 00:07:29;;;;;;;12.82;8.55;;;;;;;14.56;100.00;100620.00;4982433;28;20650;-69
2023/08/30 00:09:56;;;;;;;10.73;8.48;;;;;;;14.54;100.00;100616.78;4998463;28;20108;-70
2023/08/30 00:12:21;;;;;;;12.50;9.10;;;;;;;14.52;100.00;100618.75;4994742;28;20408;-70
2023/08/30 00:14:47;;;;;;;14.45;9.45;;;;;;;14.50;100.00;100618.13;4968498;28;20036;-69
2023/08/30 00:17:14;;;;;;;14.13;9.85;;;;;;;14.48;100.00;100617.50;4993599;28;20038;-69
2023/08/30 00:19:40;;;;;;;12.93;8.82;;;;;;;14.46;100.00;100619.47;5000917;28;20033;-69
2023/08/30 00:22:07;;;;;;;13.18;9.15;;;;;;;14.44;100.00;100615.44;4993575;28;20054;-68
2023/08/30 00:24:33;;;;;;;12.50;8.68;;;;;;;14.43;100.00;100619.03;4997447;28;20066;-70
2023/08/30 00:26:59;;;;;;;12.70;9.10;;;;;;;14.42;100.00;100613.03;4979717;28;20043;-69
2023/08/30 00:29:24;;;;;;;13.18;8.98;;;;;;;14.41;100.00;100614.84;5003482;28;20030;-70
2023/08/30 00:31:50;;;;;;;12.55;8.20;;;;;;;14.40;100.00;100615.00;4991534;28;20193;-70
2023/08/30 00:34:15;;;;;;;14.25;9.35;;;;;;;14.38;100.00;100619.63;4991263;28;20034;-70
2023/08/30 00:36:41;;;;;;;12.43;9.05;;;;;;;14.32;100.00;100615.16;4973654;28;20034;-70
2023/08/30 00:39:08;;;;;;;13.23;9.15;;;;;;;14.28;100.00;100611.25;5002415;28;20034;-70
2023/08/30 00:41:34;;;;;;;12.75;8.50;;;;;;;14.27;100.00;100605.25;5000622;28;20037;-69
2023/08/30 00:44:00;;;;;;;12.20;9.05;;;;;;;14.26;100.00;100600.22;4971480;28;20034;-69
2023/08/30 00:46:27;;;;;;;12.77;8.50;;;;;;;14.25;100.00;100601.22;4969446;28;20050;-68
2023/08/30 00:48:53;;;;;;;13.82;8.82;;;;;;;14.19;100.00;100595.75;4990719;28;20038;-69
2023/08/30 00:51:18;;;;;;;15.15;8.65;;;;;;;14.17;100.00;100595.13;4994788;28;20038;-69
2023/08/30 00:53:45;;;;;;;12.25;8.25;;;;;;;14.14;100.00;100584.25;4985920;28;20158;-69
2023/08/30 00:56:11;;;;;;;12.43;8.75;;;;;;;14.11;100.00;100592.44;4982213;28;20049;-69
2023/08/30 00:58:37;;;;;;;13.05;8.75;;;;;;;14.05;100.00;100586.16;4988535;28;20030;-69
2023/08/30 01:01:07;;;;;;;11.55;8.25;;;;;;;13.98;100.00;100587.91;4983857;28;20038;-69
2023/08/30 01:03:35;;;;;;;14.02;9.20;;;;;;;13.93;100.00;100583.22;4999160;28;20033;-69
2023/08/30 01:06:01;;;;;;;15.40;8.60;;;;;;;13.86;100.00;100577.13;5006297;28;20029;-69
2023/08/30 01:08:27;;;;;;;15.02;9.90;;;;;;;13.82;100.00;100578.47;5000770;28;20041;-69
2023/08/30 01:11:01;;;;;;;12.05;8.85;;;;;;;13.79;100.00;100581.47;4984159;28;20046;-69
2023/08/30 01:13:30;;;;;;;12.20;9.05;;;;;;;13.76;100.00;100577.41;4995610;28;20121;-69
2023/08/30 01:15:57;;;;;;;12.95;9.63;;;;;;;13.76;100.00;100581.81;4987278;28;20046;-69
2023/08/30 01:18:27;;;;;;;16.85;9.23;;;;;;;13.72;100.00;100580.56;4986178;28;20085;-69
2023/08/30 01:20:54;;;;;;;15.88;9.52;;;;;;;13.69;100.00;100579.13;4969159;28;20045;-69
2023/08/30 01:23:35;;;;;;;11.65;8.63;;;;;;;13.67;100.00;100570.69;4983833;28;20176;-69
2023/08/30 01:26:08;;;;;;;14.05;8.63;;;;;;;13.68;100.00;100571.50;4984527;28;20057;-69
2023/08/30 01:28:37;;;;;;;13.48;8.73;;;;;;;13.66;100.00;100570.88;4983580;28;20088;-69
2023/08/30 01:31:04;;;;;;;13.85;8.90;;;;;;;13.63;100.00;100577.25;4982160;28;20479;-69
2023/08/30 01:33:31;;;;;;;13.50;8.80;;;;;;;13.59;100.00;100571.59;4985171;28;20078;-69
2023/08/30 01:36:00;;;;;;;14.93;9.40;;;;;;;13.59;100.00;100558.56;4981515;28;20044;-69
2023/08/30 01:38:28;;;;;;;11.55;8.25;;;;;;;13.57;100.00;100565.75;4984043;28;20037;-68
2023/08/30 01:40:56;;;;;;;11.60;8.50;;;;;;;13.55;100.00;100565.13;4985605;28;20049;-68
2023/08/30 01:43:24;;;;;;;12.07;8.05;;;;;;;13.50;100.00;100556.25;5000631;28;20026;-69
2023/08/30 01:45:50;;;;;;;14.23;8.55;;;;;;;13.43;100.00;100556.19;4968707;28;20037;-69
2023/08/30 01:48:17;;;;;;;12.80;8.77;;;;;;;13.38;100.00;100556.69;4970105;28;20407;-69
2023/08/30 01:50:43;;;;;;;11.25;8.02;;;;;;;13.36;100.00;100561.28;4983801;28;20034;-69
2023/08/30 01:53:12;;;;;;;12.02;8.45;;;;;;;13.30;100.00;100561.16;4985195;28;20022;-68
2023/08/30 01:55:39;;;;;;;13.57;7.93;;;;;;;13.27;100.00;100564.94;4998676;28;20077;-69
2023/08/30 01:58:06;;;;;;;12.50;7.40;;;;;;;13.28;100.00;100563.13;4981571;28;20029;-69
2023/08/30 02:00:31;;;;;;;13.07;9.10;;;;;;;13.29;100.00;100565.56;4985513;28;20214;-69
2023/08/30 02:02:58;;;;;;;11.95;8.00;;;;;;;13.28;100.00;100566.56;4980316;28;20043;-69
2023/08/30 02:05:23;;;;;;;11.60;7.80;;;;;;;13.28;100.00;100570.94;5002387;28;20084;-69
2023/08/30 02:08:04;;;;;;;12.38;8.43;;;;;;;13.25;100.00;100566.91;4981139;28;20504;-69
2023/08/30 02:10:35;;;;;;;12.00;8.63;;;;;;;13.24;100.00;100562.66;4980357;28;20038;-68
2023/08/30 02:13:03;;;;;;;11.60;7.78;;;;;;;13.23;100.00;100563.69;4982213;28;20034;-69
2023/08/30 02:15:31;;;;;;;14.52;8.55;;;;;;;13.20;100.00;100557.03;4983810;28;20121;-68
2023/08/30 02:17:57;;;;;;;14.80;9.13;;;;;;;13.18;100.00;100555.59;4980207;28;20044;-69
2023/08/30 02:20:23;;;;;;;15.65;8.10;;;;;;;13.18;100.00;100558.19;4984524;28;20038;-69
2023/08/30 02:22:48;;;;;;;14.43;8.95;;;;;;;13.17;100.00;100548.78;4982214;28;20545;-69
2023/08/30 02:25:14;;;;;;;16.98;8.77;;;;;;;13.17;100.00;100549.56;4978931;28;20034;-69
2023/08/30 02:27:39;;;;;;;12.95;8.30;;;;;;;13.16;100.00;100550.56;4984153;28;20034;-69
2023/08/30 02:30:08;;;;;;;16.48;9.70;;;;;;;13.14;100.00;100547.31;4985425;28;20037;-69
2023/08/30 02:32:33;;;;;;;13.07;8.95;;;;;;;13.10;100.00;100546.06;5003303;28;20124;-68
2023/08/30 02:34:59;;;;;;;17.23;8.43;;;;;;;13.04;100.00;100552.00;5002574;28;20132;-68
2023/08/30 02:37:25;;;;;;;19.00;9.77;;;;;;;13.01;100.00;100540.13;4999269;28;20046;-69
2023/08/30 02:39:50;;;;;;;15.65;8.85;;;;;;;13.01;100.00;100547.13;4980762;28;20026;-68
2023/08/30 02:42:16;;;;;;;14.75;9.57;;;;;;;12.99;100.00;100555.09;4997614;28;20047;-69
2023/08/30 02:44:41;;;;;;;13.07;9.13;;;;;;;12.95;100.00;100556.47;4983370;28;20034;-69
2023/08/30 02:47:07;;;;;;;15.05;9.60;;;;;;;12.97;100.00;100556.28;5001009;28;20036;-69
2023/08/30 02:49:33;;;;;;;15.65;10.45;;;;;;;12.94;100.00;100551.41;5015579;28;20054;-68
2023/08/30 02:51:58;;;;;;;20.45;10.57;;;;;;;12.90;100.00;100542.34;4982754;28;20076;-69
2023/08/30 02:54:24;;;;;;;16.55;9.88;;;;;;;12.85;100.00;100548.91;4998929;28;20037;-68
2023/08/30 02:56:49;;;;;;;14.05;9.65;;;;;;;12.82;100.00;100546.66;4981220;28;20034;-68
2023/08/30 02:59:15;;;;;;;20.30;9.93;;;;;;;12.79;100.00;100539.22;4980874;28;20041;-70
2023/08/30 03:01:40;;;;;;;15.05;8.98;;;;;;;12.79;100.00;100534.00;4980989;28;20041;-69
2023/08/30 03:04:08;;;;;;;13.90;8.75;;;;;;;12.78;100.00;100531.59;4979533;28;20494;-68
2023/08/30 03:06:34;;;;;;;14.82;9.00;;;;;;;12.79;100.00;100522.78;4986293;28;20045;-68
2023/08/30 03:09:02;;;;;;;17.00;9.32;;;;;;;12.78;100.00;100524.56;4998324;28;20041;-69
2023/08/30 03:11:29;;;;;;;13.55;9.82;;;;;;;12.77;100.00;100525.56;4982286;28;20045;-68
2023/08/30 03:13:55;;;;;;;17.67;9.98;;;;;;;12.75;100.00;100518.91;4978645;28;20061;-69
2023/08/30 03:16:21;;;;;;;14.75;9.57;;;;;;;12.69;100.00;100517.81;4981984;28;20578;-68
2023/08/30 03:18:47;;;;;;;14.05;9.25;;;;;;;12.66;100.00;100513.78;4969589;28;20128;-68
2023/08/30 03:21:13;;;;;;;16.40;9.15;;;;;;;12.65;100.00;100519.97;4980967;28;20038;-69
2023/08/30 03:23:40;;;;;;;13.00;8.68;;;;;;;12.66;100.00;100518.19;4970369;28;20033;-68
2023/08/30 03:26:15;;;;;;;16.20;9.63;;;;;;;12.66;100.00;100519.00;4968794;28;21104;-69
2023/08/30 03:28:42;;;;;;;13.65;9.30;;;;;;;12.66;100.00;100511.19;4995217;28;20034;-68
2023/08/30 03:31:26;;;;;;;17.70;10.00;;;;;;;12.64;100.00;100513.16;4981823;28;20034;-69
2023/08/30 03:33:51;;;;;;;13.40;9.40;;;;;;;12.59;100.00;100517.28;4983470;28;20151;-69
2023/08/30 03:36:18;;;;;;;13.43;9.18;;;;;;;12.52;100.00;100514.56;4992647;28;20189;-68
2023/08/30 03:38:44;;;;;;;13.20;9.00;;;;;;;12.49;100.00;100514.09;4995875;28;20030;-69
2023/08/30 03:41:11;;;;;;;16.80;9.77;;;;;;;12.46;100.00;100512.66;4981610;28;20121;-68
2023/08/30 03:43:37;;;;;;;15.80;8.93;;;;;;;12.42;100.00;100509.59;4989444;28;20088;-68
2023/08/30 03:46:03;;;;;;;15.23;9.55;;;;;;;12.40;100.00;100505.56;4967323;28;20280;-68
2023/08/30 03:48:29;;;;;;;12.45;9.32;;;;;;;12.35;100.00;100505.28;4981045;28;20527;-68
2023/08/30 03:50:55;;;;;;;13.90;8.63;;;;;;;12.29;100.00;100493.00;4997665;28;20038;-68
2023/08/30 03:53:21;;;;;;;15.30;8.95;;;;;;;12.23;100.00;100500.50;4971667;28;20044;-68
2023/08/30 03:55:46;;;;;;;16.17;9.73;;;;;;;12.22;100.00;100498.06;4981759;28;20038;-68
2023/08/30 03:58:12;;;;;;;16.23;9.77;;;;;;;12.23;100.00;100497.88;4984482;28;20361;-68
2023/08/30 04:00:38;;;;;;;16.77;10.50;;;;;;;12.26;100.00;100500.16;4967499;28;20030;-68
2023/08/30 04:03:11;;;;;;;14.60;10.13;;;;;;;12.28;100.00;100499.97;4981667;28;20042;-69
2023/08/30 04:05:37;;;;;;;16.90;10.90;;;;;;;12.28;100.00;100499.97;4986127;28;20578;-69
2023/08/30 04:08:03;;;;;;;19.33;11.70;;;;;;;12.27;100.00;100499.16;4969884;28;20697;-68
2023/08/30 04:10:29;;;;;;;19.92;11.43;;;;;;;12.29;100.00;100504.19;4988148;28;20068;-68
2023/08/30 04:12:55;;;;;;;15.75;10.05;;;;;;;12.31;100.00;100498.81;5005582;28;20033;-68
2023/08/30 04:15:20;;;;;;;18.67;11.82;;;;;;;12.33;100.00;100500.25;4984621;28;20027;-68
2023/08/30 04:17:46;;;;;;;14.88;9.45;;;;;;;12.36;100.00;100494.72;5002840;28;20648;-68
2023/08/30 04:20:11;;;;;;;14.43;9.88;;;;;;;12.39;100.00;100483.94;4987950;28;20040;-68
2023/08/30 04:22:37;;;;;;;16.35;11.60;;;;;;;12.42;100.00;100481.00;4999231;28;20050;-68
2023/08/30 04:25:03;;;;;;;14.50;10.68;;;;;;;12.44;100.00;100483.44;4987161;28;20025;-68
2023/08/30 04:27:29;;;;;;;20.83;12.35;;;;;;;12.46;100.00;100476.25;4985208;28;20056;-68
2023/08/30 04:29:55;;;;;;;18.92;11.48;;;;;;;12.49;100.00;100472.50;4979732;28;20116;-69
2023/08/30 04:32:21;;;;;;;17.00;10.90;;;;;;;12.50;100.00;100469.72;4970396;28;20030;-68
2023/08/30 04:34:46;;;;;;;17.30;11.32;;;;;;;12.52;100.00;100478.16;4985740;28;20085;-68
2023/08/30 04:37:12;;;;;;;20.27;10.82;;;;;;;12.53;100.00;100476.38;4983154;28;20029;-68
2023/08/30 04:39:37;;;;;;;19.10;12.75;;;;;;;12.53;100.00;100476.38;4986859;28;20042;-68
2023/08/30 04:42:03;;;;;;;25.83;12.93;;;;;;;12.53;100.00;100471.97;4967404;28;20631;-68
2023/08/30 04:44:29;;;;;;;20.58;12.18;;;;;;;12.55;100.00;100474.41;4967387;28;20101;-68
2023/08/30 04:46:55;;;;;;;17.02;12.38;;;;;;;12.59;100.00;100471.25;4971887;28;20043;-68
2023/08/30 04:49:22;;;;;;;19.77;11.68;;;;;;;12.61;100.00;100466.69;4984158;28;20053;-68
2023/08/30 04:51:47;;;;;;;23.52;12.82;;;;;;;12.63;100.00;100464.72;4968284;28;20516;-68
2023/08/30 04:54:13;;;;;;;18.48;12.48;;;;;;;12.65;100.00;100454.94;4982456;28;21748;-68
2023/08/30 04:56:39;;;;;;;23.98;14.02;;;;;;;12.74;100.00;100441.88;4983182;28;20070;-69
2023/08/30 04:59:05;;;;;;;24.05;14.75;;;;;;;12.70;100.00;100440.63;4983119;28;20025;-68
2023/08/30 05:01:31;;;;;;;24.27;14.90;;;;;;;12.73;100.00;100437.63;4969114;28;20053;-68
2023/08/30 05:03:59;;;;;;;23.48;15.25;;;;;;;12.75;100.00;100435.66;4982801;28;20076;-68
2023/08/30 05:06:24;;;;;;;18.95;12.95;;;;;;;12.72;100.00;100436.03;4983759;28;20041;-68
2023/08/30 05:08:50;;;;;;;21.98;14.10;;;;;;;12.78;100.00;100432.72;4973470;28;20045;-68
2023/08/30 05:11:16;;;;;;;23.02;14.98;;;;;;;12.79;100.00;100434.31;4983480;28;20042;-68
2023/08/30 05:13:41;;;;;;;25.42;14.88;;;;;;;12.77;100.00;100431.91;4989629;28;20049;-68
2023/08/30 05:16:07;;;;;;;25.38;15.00;;;;;;;12.78;100.00;100430.91;4986463;28;20050;-68
2023/08/30 05:18:32;;;;;;;19.17;12.55;;;;;;;12.79;100.00;100424.75;4987462;28;20042;-68
2023/08/30 05:21:03;;;;;;;21.90;13.00;;;;;;;12.81;100.00;100424.56;4994908;28;20034;-68
2023/08/30 05:23:30;;;;;;;20.95;13.18;;;;;;;12.83;100.00;100419.97;4983100;28;20022;-68
2023/08/30 05:25:55;;;;;;;24.33;14.80;;;;;;;12.89;100.00;100423.66;4970570;28;20038;-68
2023/08/30 05:28:21;;;;;;;25.35;15.38;;;;;;;12.90;100.00;100426.06;5001111;28;20033;-68
2023/08/30 05:30:46;;;;;;;21.52;15.15;;;;;;;12.90;100.00;100409.66;4983519;28;20557;-68
2023/08/30 05:33:26;;;;;;;20.50;13.35;;;;;;;12.88;100.00;100412.44;4999004;28;20029;-68
2023/08/30 05:36:12;;;;;;;20.30;12.35;;;;;;;12.91;100.00;100400.88;4998965;28;22259;-68
2023/08/30 05:38:50;;;;;;;28.40;16.50;;;;;;;13.00;100.00;100403.19;4971272;28;20510;-69
2023/08/30 05:41:31;;;;;;;26.80;17.05;;;;;;;13.05;100.00;100403.47;4984893;28;20050;-68
2023/08/30 05:43:58;;;;;;;25.73;15.23;;;;;;;13.13;100.00;100401.72;4986030;28;20029;-68
2023/08/30 05:46:23;;;;;;;24.48;14.75;;;;;;;13.17;100.00;100395.97;4980422;28;20046;-68
2023/08/30 05:48:49;;;;;;;27.33;15.88;;;;;;;13.25;100.00;100397.66;4988728;28;20040;-67
2023/08/30 05:51:15;;;;;;;26.02;15.02;;;;;;;13.26;100.00;100394.09;4983916;28;20681;-68
2023/08/30 05:53:41;;;;;;;28.08;15.77;;;;;;;13.26;100.00;100386.28;4986405;28;20093;-68
2023/08/30 05:56:06;;;;;;;20.25;14.02;;;;;;;13.29;100.00;100380.69;4983595;28;20042;-68
2023/08/30 05:58:32;;;;;;;26.25;15.27;;;;;;;13.27;100.00;100379.25;4985749;28;20034;-68
2023/08/30 06:00:59;;;;;;;23.98;15.50;;;;;;;13.31;100.00;100381.34;4978123;28;20042;-68
2023/08/30 06:03:25;;;;;;;23.02;15.00;;;;;;;13.48;100.00;100375.91;5000176;28;20045;-68
2023/08/30 06:05:50;;;;;;;29.73;15.13;;;;;;;13.42;100.00;100372.25;4983628;28;20042;-68
2023/08/30 06:08:17;;;;;;;29.75;15.43;;;;;;;13.43;100.00;100374.66;5001686;28;20026;-68
2023/08/30 06:10:43;;;;;;;31.88;15.07;;;;;;;13.47;100.00;100377.72;4998422;28;20050;-68
2023/08/30 06:13:08;;;;;;;23.67;13.43;;;;;;;13.50;100.00;100377.31;5006482;28;20041;-68
2023/08/30 06:15:35;;;;;;;29.50;14.35;;;;;;;13.55;100.00;100374.97;5001969;28;20038;-68
2023/08/30 06:18:01;;;;;;;18.67;10.90;;;;;;;13.56;100.00;100386.19;4983692;28;20108;-68
2023/08/30 06:20:26;;;;;;;24.38;13.45;;;;;;;13.66;100.00;100378.91;4981709;28;20633;-68
2023/08/30 06:22:52;;;;;;;29.08;13.57;;;;;;;13.73;100.00;100374.56;4998604;28;20053;-68
2023/08/30 06:25:17;;;;;;;25.30;13.07;;;;;;;13.75;100.00;100375.19;5004070;28;20040;-68
2023/08/30 06:27:58;;;;;;;21.42;12.38;;;;;;;13.81;100.00;100373.63;5001886;28;20050;-68
2023/08/30 06:30:28;;;;;;;27.60;13.80;;;;;;;13.87;100.00;100375.47;5002384;28;20041;-68
2023/08/30 06:32:53;;;;;;;23.25;11.50;;;;;;;13.94;100.00;100370.31;5002692;28;20037;-67
2023/08/30 06:35:20;;;;;;;24.67;12.73;;;;;;;14.12;100.00;100367.25;4991012;28;20037;-67
2023/08/30 06:37:45;;;;;;;25.95;13.95;;;;;;;14.14;100.00;100367.84;5001913;28;20409;-68
2023/08/30 06:40:11;;;;;;;23.15;13.73;;;;;;;14.25;100.00;100366.53;5011185;23;20047;-69
2023/08/30 06:42:38;;;;;;;24.45;12.40;;;;;;;14.28;100.00;100366.97;4942963;28;20047;-69
2023/08/30 06:45:04;;;;;;;21.23;12.55;;;;;;;14.47;100.00;100365.47;4956775;28;20035;-69
2023/08/30 06:47:29;;;;;;;29.65;11.60;;;;;;;14.53;100.00;100366.50;4963239;28;20041;-69
2023/08/30 06:49:55;;;;;;;23.83;12.23;;;;;;;14.65;100.00;100372.00;4977277;28;20065;-69
2023/08/30 06:52:20;;;;;;;24.17;11.40;;;;;;;14.81;100.00;100376.13;4981592;28;20034;-68
2023/08/30 06:54:46;;;;;;;19.40;10.23;;;;;;;14.94;100.00;100373.56;5001279;28;20042;-68
2023/08/30 06:57:11;;;;;;;20.63;10.07;;;;;;;15.22;99.55;100370.84;4982307;28;21459;-69
2023/08/30 06:59:37;;;;;;;29.27;10.88;;;;;;;15.53;97.03;100359.84;4980111;28;20046;-69
2023/08/30 07:02:03;;;;;;;14.93;9.75;;;;;;;16.02;93.30;100357.09;5000143;28;20096;-69
2023/08/30 07:04:28;;;;;;;18.70;9.40;;;;;;;16.52;90.07;100344.31;4986187;28;20401;-68
2023/08/30 07:06:54;;;;;;;19.55;8.45;;;;;;;17.10;86.94;100343.50;4983610;28;20117;-69
2023/08/30 07:09:19;;;;;;;17.70;7.40;;;;;;;17.58;83.51;100336.94;5000107;28;20385;-69
2023/08/30 07:11:45;;;;;;;20.23;7.50;;;;;;;17.53;80.70;100337.56;4981069;28;20126;-69
2023/08/30 07:14:12;;;;;;;17.73;7.00;;;;;;;17.40;81.54;100332.44;4989685;28;20609;-69
2023/08/30 07:16:38;;;;;;;14.30;7.25;;;;;;;17.26;82.42;100329.91;5003349;28;20045;-69
2023/08/30 07:19:03;;;;;;;13.85;6.90;;;;;;;17.21;82.43;100332.34;4984604;28;20026;-69
2023/08/30 07:21:29;;;;;;;15.38;7.15;;;;;;;17.49;79.80;100321.47;4985604;28;20049;-69
2023/08/30 07:23:55;;;;;;;15.93;6.50;;;;;;;17.61;78.34;100326.84;4981740;28;20088;-69
2023/08/30 07:26:20;;;;;;;17.10;6.40;;;;;;;17.45;80.31;100324.75;4983372;28;20069;-69
2023/08/30 07:28:46;;;;;;;11.95;6.13;;;;;;;17.24;80.29;100328.50;4983770;28;20762;-70
2023/08/30 07:31:15;;;;;;;17.50;5.70;;;;;;;17.06;78.45;100330.00;4982964;28;20137;-69
2023/08/30 07:33:40;;;;;;;9.90;5.43;;;;;;;17.01;78.30;100329.03;5000193;28;20060;-70
2023/08/30 07:36:06;;;;;;;9.38;4.88;;;;;;;16.96;78.59;100327.06;4997938;28;21587;-69
2023/08/30 07:38:32;;;;;;;10.23;5.22;;;;;;;17.23;78.47;100329.50;5001633;28;20468;-69
2023/08/30 07:40:57;;;;;;;11.15;5.47;;;;;;;17.31;77.98;100324.84;5000307;28;20467;-69
2023/08/30 07:43:23;;;;;;;10.98;5.15;;;;;;;17.46;77.24;100335.03;4983866;28;20037;-71
2023/08/30 07:45:48;;;;;;;8.57;5.18;;;;;;;17.58;77.79;100332.50;4996765;28;20038;-69
2023/08/30 07:48:14;;;;;;;8.00;4.38;;;;;;;17.80;76.28;100324.25;4999106;28;20022;-69
2023/08/30 07:50:39;;;;;;;8.52;5.18;;;;;;;17.85;75.06;100322.63;4969102;28;20516;-69
2023/08/30 07:53:05;;;;;;;8.32;4.65;;;;;;;18.03;74.15;100323.69;5000658;28;20088;-70
2023/08/30 07:55:30;;;;;;;8.23;4.50;;;;;;;18.16;75.25;100326.19;5003719;28;20030;-69
2023/08/30 07:57:56;;;;;;;10.52;3.65;;;;;;;18.80;73.40;100328.50;4969961;28;20381;-69
2023/08/30 08:00:21;;;;;;;13.07;4.63;;;;;;;18.67;73.07;100322.38;4970101;28;20041;-70
2023/08/30 08:02:47;;;;;;;8.00;4.13;;;;;;;18.52;72.74;100324.59;4983029;28;20062;-69
2023/08/30 08:05:12;;;;;;;7.47;4.30;;;;;;;18.28;73.63;100327.06;4968357;28;20389;-69
2023/08/30 08:07:40;;;;;;;9.23;4.13;;;;;;;18.31;74.54;100330.25;5000997;28;20030;-69
2023/08/30 08:10:07;;;;;;;8.77;4.75;;;;;;;18.25;75.63;100322.25;5001787;28;20054;-69
2023/08/30 08:12:33;;;;;;;10.40;4.03;;;;;;;18.31;76.42;100341.56;4981628;28;20031;-70
2023/08/30 08:14:58;;;;;;;11.10;4.07;;;;;;;18.01;76.06;100344.88;4997817;28;20053;-70
2023/08/30 08:17:24;;;;;;;18.20;4.93;;;;;;;17.76;76.68;100344.06;4982778;28;20050;-69
2023/08/30 08:19:49;;;;;;;9.25;4.18;;;;;;;17.64;80.68;100342.13;4998346;28;20054;-70
2023/08/30 08:22:14;;;;;;;8.45;4.30;;;;;;;17.38;84.92;100340.50;4996890;28;20042;-69
2023/08/30 08:24:40;;;;;;;8.55;4.43;;;;;;;17.34;85.24;100339.31;4978618;28;20033;-69
2023/08/30 08:27:05;;;;;;;7.45;4.15;;;;;;;17.44;85.37;100336.22;4995144;28;20049;-69
2023/08/30 08:29:31;;;;;;;10.60;4.32;;;;;;;17.44;86.37;100333.59;4998312;28;20380;-70
2023/08/30 08:31:57;;;;;;;6.55;4.47;;;;;;;17.55;87.26;100332.91;4985422;28;20068;-69
2023/08/30 08:34:22;;;;;;;8.00;3.95;;;;;;;17.55;86.99;100338.16;4997774;28;20038;-69
2023/08/30 08:36:48;;;;;;;8.00;4.78;;;;;;;17.48;83.80;100330.38;4998818;28;20611;-70
2023/08/30 08:39:14;;;;;;;7.78;3.85;;;;;;;17.30;83.37;100335.53;4987071;28;20084;-69
2023/08/30 08:41:44;;;;;;;8.40;4.10;;;;;;;17.44;82.29;100333.59;4981636;28;20034;-71
2023/08/30 08:44:10;;;;;;;7.60;4.20;;;;;;;17.24;82.65;100333.75;4999767;28;20048;-70
2023/08/30 08:46:38;;;;;;;7.80;4.38;;;;;;;17.11;83.38;100335.44;4982167;28;20055;-70
2023/08/30 08:49:15;;;;;;;12.07;4.75;;;;;;;17.08;83.49;100322.78;4984079;28;20388;-70
2023/08/30 08:51:42;;;;;;;9.18;3.30;;;;;;;17.05;84.54;100328.41;4970063;28;20030;-69
2023/08/30 08:54:09;;;;;;;9.65;4.72;;;;;;;17.24;85.60;100331.94;5003962;28;20072;-69
2023/08/30 08:56:35;;;;;;;8.60;4.43;;;;;;;17.06;83.94;100326.59;4983097;28;20061;-69
2023/08/30 08:59:01;;;;;;;12.63;4.55;;;;;;;17.10;83.00;100314.69;4970124;28;20037;-69
2023/08/30 09:01:27;;;;;;;11.07;4.40;;;;;;;17.06;82.26;100324.75;5000132;28;20037;-69
2023/08/30 09:03:52;;;;;;;6.25;3.47;;;;;;;17.00;83.69;100319.59;4987194;28;20030;-70
2023/08/30 09:06:18;;;;;;;8.82;4.93;;;;;;;16.95;85.01;100312.34;4971373;28;20645;-70
2023/08/30 09:08:44;;;;;;;10.63;4.35;;;;;;;16.78;88.12;100308.56;5002693;28;20160;-70
2023/08/30 09:11:10;;;;;;;10.75;4.93;;;;;;;16.64;91.66;100308.63;5001416;28;20038;-69
2023/08/30 09:13:35;;;;;;;8.52;5.50;;;;;;;16.67;93.15;100310.03;4999455;28;20116;-70
2023/08/30 09:16:02;;;;;;;7.95;4.35;;;;;;;16.67;95.00;100304.78;4985295;28;20033;-70
2023/08/30 09:18:28;;;;;;;11.35;4.53;;;;;;;16.85;95.38;100310.19;4986746;28;20040;-70
2023/08/30 09:21:08;;;;;;;8.43;4.72;;;;;;;16.90;95.12;100307.75;4984119;28;20396;-69
2023/08/30 09:23:34;;;;;;;9.57;4.93;;;;;;;16.86;94.55;100303.16;4983746;28;20038;-69
2023/08/30 09:26:00;;;;;;;9.50;5.32;;;;;;;16.84;91.95;100303.34;5002032;28;20041;-69
2023/08/30 09:28:26;;;;;;;8.70;5.45;;;;;;;16.85;91.40;100299.69;5001798;28;20064;-69
2023/08/30 09:30:52;;;;;;;6.78;4.10;;;;;;;16.84;91.88;100311.19;5004540;28;20111;-69
2023/08/30 09:33:22;;;;;;;4.75;3.40;;;;;;;16.63;91.63;100304.44;5003673;28;20038;-69
2023/08/30 09:35:48;;;;;;;10.75;3.97;;;;;;;16.70;91.36;100301.75;4968833;28;20025;-70
2023/08/30 09:38:18;;;;;;;10.98;3.67;;;;;;;16.64;91.06;100307.84;5001623;28;20057;-69
2023/08/30 09:40:44;;;;;;;6.88;3.80;;;;;;;16.58;91.21;100306.06;4999595;28;20444;-69
2023/08/30 09:43:10;;;;;;;9.00;3.45;;;;;;;16.48;92.45;100309.91;5001649;28;20129;-70
2023/08/30 09:45:36;;;;;;;10.82;3.85;;;;;;;16.46;92.63;100303.25;5001739;28;20145;-70
2023/08/30 09:48:02;;;;;;;6.38;3.65;;;;;;;16.46;94.10;100309.31;4969469;28;20060;-70
2023/08/30 09:50:33;;;;;;;6.88;2.97;;;;;;;16.47;95.17;100302.25;4983661;28;20038;-69
2023/08/30 09:53:00;;;;;;;10.00;3.63;;;;;;;16.47;95.30;100300.44;4982644;28;20199;-70
2023/08/30 09:55:26;;;;;;;8.25;3.38;;;;;;;16.44;94.91;100300.84;4969390;28;20045;-69
2023/08/30 09:57:53;;;;;;;6.82;3.20;;;;;;;16.42;96.10;100299.44;5001909;28;20116;-70
2023/08/30 10:00:19;;;;;;;6.28;3.00;;;;;;;16.41;97.79;100298.66;4984697;28;20042;-69
2023/08/30 10:02:45;;;;;;;6.75;4.10;;;;;;;16.39;98.25;100300.69;4984916;28;20078;-70
2023/08/30 10:05:12;;;;;;;5.05;3.60;;;;;;;16.50;98.39;100305.28;5001022;28;20392;-69
2023/08/30 10:07:39;;;;;;;7.30;3.67;;;;;;;16.35;99.92;100307.34;4969389;28;20057;-70
2023/08/30 10:10:05;;;;;;;6.68;3.95;;;;;;;16.29;99.97;100308.13;4971434;28;20034;-70
2023/08/30 10:12:34;;;;;;;9.70;4.25;;;;;;;16.17;100.00;100310.59;4999873;28;20387;-70
2023/08/30 10:15:00;;;;;;;8.90;5.43;;;;;;;16.04;100.00;100318.47;5000543;28;20134;-70
2023/08/30 10:17:32;;;;;;;10.05;4.78;;;;;;;15.96;100.00;100309.03;4981362;28;20037;-70
2023/08/30 10:19:59;;;;;;;6.00;3.88;;;;;;;15.92;100.00;100319.06;5002564;28;20034;-70
2023/08/30 10:22:25;;;;;;;9.45;5.57;;;;;;;15.81;100.00;100318.88;4979332;28;20145;-71
2023/08/30 10:25:02;;;;;;;10.23;5.20;;;;;;;15.81;100.00;100313.66;4981198;28;20038;-70
2023/08/30 10:27:31;;;;;;;8.55;4.38;;;;;;;15.82;100.00;100316.03;4984773;28;20041;-71
2023/08/30 10:30:01;;;;;;;9.98;5.03;;;;;;;15.94;100.00;100314.44;4984699;28;20030;-71
2023/08/30 10:32:26;;;;;;;6.03;3.80;;;;;;;15.92;100.00;100316.47;4979018;28;20030;-71
2023/08/30 10:34:52;;;;;;;8.50;4.45;;;;;;;15.98;100.00;100312.22;4983268;28;20025;-71
2023/08/30 10:37:26;;;;;;;8.25;4.53;;;;;;;15.92;100.00;100313.84;4984364;28;20046;-71
2023/08/30 10:39:52;;;;;;;7.13;4.95;;;;;;;15.83;100.00;100312.44;4980988;28;20026;-71
2023/08/30 10:42:22;;;;;;;6.55;4.78;;;;;;;15.80;100.00;100310.22;5001681;28;20046;-70
2023/08/30 10:44:48;;;;;;;8.50;4.57;;;;;;;15.61;100.00;100316.22;4985834;28;20041;-71
2023/08/30 10:47:30;;;;;;;9.70;5.00;;;;;;;15.61;100.00;100314.41;4985374;28;20034;-72
2023/08/30 10:50:00;;;;;;;8.50;4.40;;;;;;;15.52;100.00;100311.22;4983254;28;20030;-72
2023/08/30 10:52:27;;;;;;;8.02;4.05;;;;;;;15.49;100.00;100313.41;4999535;28;20038;-72
2023/08/30 10:55:05;;;;;;;5.88;3.75;;;;;;;15.45;100.00;100310.41;4985792;28;20087;-72
2023/08/30 10:57:32;;;;;;;8.75;4.20;;;;;;;15.60;100.00;100312.81;4984036;28;20041;-71
2023/08/30 11:00:20;;;;;;;8.55;4.43;;;;;;;15.71;100.00;100314.03;5002135;28;20034;-72
2023/08/30 11:02:47;;;;;;;8.50;4.03;;;;;;;15.90;100.00;100307.22;4982748;28;20046;-71
2023/08/30 11:05:15;;;;;;;6.43;4.65;;;;;;;16.00;100.00;100304.97;4997331;28;20133;-72
2023/08/30 11:07:41;;;;;;;8.73;4.80;;;;;;;16.10;100.00;100307.19;5002334;28;20567;-72
2023/08/30 11:10:06;;;;;;;8.05;4.10;;;;;;;16.15;100.00;100302.16;5001292;28;20045;-71